createdAt,value
2022-08-04T00:03:46.203Z,62.36
2022-08-04T00:06:38.636Z,61.85
2022-08-04T00:09:22.944Z,62.02
2022-08-04T00:11:53.095Z,61.94
2022-08-04T00:14:25.059Z,62.57
2022-08-04T00:16:54.704Z,62.02
2022-08-04T00:19:32.503Z,61.52
2022-08-04T00:22:03.104Z,61.76
2022-08-04T00:24:35.726Z,61.73
2022-08-04T00:27:04.059Z,61.39
2022-08-04T00:29:31.946Z,61.12
2022-08-04T00:31:59.594Z,60.76
2022-08-04T00:34:28.317Z,60.72
2022-08-04T00:36:57.656Z,61.13
2022-08-04T00:39:25.622Z,61.22
2022-08-04T00:42:16.903Z,61.21
2022-08-04T00:45:08.132Z,61.42
2022-08-04T00:47:53.789Z,61.56
2022-08-04T00:50:43.355Z,61.45
2022-08-04T00:53:22.283Z,61.24
2022-08-04T00:56:12.112Z,61.16
2022-08-04T00:59:14.335Z,62.02
2022-08-04T01:02:12.523Z,62.08
2022-08-04T01:05:06.888Z,62.08
2022-08-04T01:08:04.289Z,62.33
2022-08-04T01:10:48.326Z,62.88
2022-08-04T01:13:29.737Z,63.69
2022-08-04T01:16:05.559Z,63.29
2022-08-04T01:19:01.458Z,62.53
2022-08-04T01:21:51.980Z,62.31
2022-08-04T01:24:42.688Z,62.35
2022-08-04T01:27:26.980Z,62.82
2022-08-04T01:29:59.285Z,62.14
2022-08-04T01:32:38.569Z,61.47
2022-08-04T01:35:47.636Z,61.21
2022-08-04T01:38:20.058Z,61.18
2022-08-04T01:40:53.996Z,61.53
2022-08-04T01:43:21.698Z,61.44
2022-08-04T01:45:57.055Z,61.49
2022-08-04T01:48:26.101Z,61.66
2022-08-04T01:50:57.024Z,61.56
2022-08-04T01:53:29.663Z,61.22
2022-08-04T01:55:58.035Z,61.18
2022-08-04T01:58:26.774Z,60.91
2022-08-04T02:01:02.493Z,60.91
2022-08-04T02:04:18.384Z,60.20
2022-08-04T02:06:50.202Z,59.74
2022-08-04T02:09:54.707Z,60.13
2022-08-04T02:12:37.571Z,60.10
2022-08-04T02:15:20.691Z,60.81
2022-08-04T02:18:28.496Z,60.79
2022-08-04T02:21:02.441Z,61.21
2022-08-04T02:23:38.567Z,60.77
2022-08-04T02:26:13.269Z,61.12
2022-08-04T02:28:57.127Z,61.22
2022-08-04T02:31:48.629Z,61.91
2022-08-04T02:34:30.691Z,61.63
2022-08-04T02:37:00.089Z,61.80
2022-08-04T02:39:48.009Z,62.01
2022-08-04T02:42:17.526Z,62.32
2022-08-04T02:44:51.236Z,62.04
2022-08-04T02:47:21.079Z,62.02
2022-08-04T02:49:51.827Z,62.83
2022-08-04T02:52:21.215Z,62.92
2022-08-04T02:54:52.196Z,62.87
2022-08-04T02:57:20.271Z,62.55
2022-08-04T03:00:14.282Z,63.05
2022-08-04T03:03:18.861Z,63.20
2022-08-04T03:06:11.854Z,62.72
2022-08-04T03:09:06.698Z,62.92
2022-08-04T03:11:56.960Z,62.48
2022-08-04T03:14:45.830Z,62.83
2022-08-04T03:17:52.559Z,62.77
2022-08-04T03:20:48.314Z,62.92
2022-08-04T03:23:43.214Z,63.18
2022-08-04T03:26:37.429Z,63.35
2022-08-04T03:29:26.485Z,63.02
2022-08-04T03:32:09.030Z,62.26
2022-08-04T03:35:13.600Z,63.18
2022-08-04T03:38:08.062Z,62.59
2022-08-04T03:40:37.753Z,63.29
2022-08-04T03:43:59.213Z,63.50
2022-08-04T03:46:39.232Z,62.78
2022-08-04T03:49:40.295Z,62.41
2022-08-04T03:52:50.938Z,61.52
2022-08-04T03:55:56.465Z,61.25
2022-08-04T03:58:46.060Z,60.88
2022-08-04T04:02:01.017Z,60.46
2022-08-04T04:05:09.766Z,61.66
2022-08-04T04:08:07.245Z,61.85
2022-08-04T04:11:29.934Z,60.61
2022-08-04T04:14:11.949Z,59.99
2022-08-04T04:17:04.456Z,59.57
2022-08-04T04:20:01.883Z,59.23
2022-08-04T04:23:05.799Z,59.19
2022-08-04T04:25:43.226Z,58.88
2022-08-04T04:28:45.795Z,57.90
2022-08-04T04:31:42.376Z,57.55
2022-08-04T04:34:56.293Z,58.11
2022-08-04T04:38:06.654Z,56.90
2022-08-04T04:41:07.074Z,56.74
2022-08-04T04:43:51.413Z,56.56
2022-08-04T04:46:37.313Z,56.12
2022-08-04T04:49:25.574Z,54.78
2022-08-04T04:52:03.515Z,53.37
2022-08-04T04:54:46.032Z,52.26
2022-08-04T04:57:19.184Z,51.92
2022-08-04T05:00:09.115Z,49.05
2022-08-04T05:03:09.308Z,49.00
2022-08-04T05:05:48.874Z,48.54
2022-08-04T05:08:47.440Z,47.11
2022-08-04T05:11:21.594Z,46.85
2022-08-04T05:14:34.410Z,46.93
2022-08-04T05:16:54.655Z,43.84
2022-08-04T05:19:40.549Z,43.42
2022-08-04T05:22:14.831Z,42.36
2022-08-04T05:24:45.144Z,42.99
2022-08-04T05:27:21.834Z,42.06
2022-08-04T05:29:55.403Z,41.98
2022-08-04T05:32:31.224Z,40.90
2022-08-04T05:35:04.174Z,40.68
2022-08-04T05:37:35.234Z,40.51
2022-08-04T05:40:07.706Z,39.96
2022-08-04T05:42:38.512Z,39.98
2022-08-04T05:45:08.324Z,40.77
2022-08-04T05:47:36.393Z,40.36
2022-08-04T05:50:05.014Z,40.14
2022-08-04T05:52:34.821Z,39.95
2022-08-04T05:55:03.093Z,39.85
2022-08-04T05:57:31.634Z,39.58
2022-08-04T06:00:10.367Z,39.30
2022-08-04T06:02:50.405Z,38.33
2022-08-04T06:05:18.607Z,37.69
2022-08-04T06:08:12.709Z,36.80
2022-08-04T06:10:37.817Z,36.64
2022-08-04T06:13:08.976Z,35.66
2022-08-04T06:15:58.238Z,35.12
2022-08-04T06:19:57.099Z,34.17
2022-08-04T06:21:21.296Z,34.21
2022-08-04T06:23:53.813Z,33.11
2022-08-04T06:26:33.006Z,33.00
2022-08-04T06:29:01.856Z,31.64
2022-08-04T06:32:28.973Z,32.15
2022-08-04T06:34:32.825Z,32.65
2022-08-04T06:37:00.630Z,32.01
2022-08-04T06:39:29.957Z,32.86
2022-08-04T06:42:21.857Z,33.21
2022-08-04T06:44:46.807Z,32.96
2022-08-04T06:47:14.132Z,32.46
2022-08-04T06:49:55.078Z,32.68
2022-08-04T06:52:29.740Z,32.60
2022-08-04T06:54:58.270Z,31.83
2022-08-04T06:57:30.605Z,32.51
2022-08-04T07:00:18.698Z,31.63
2022-08-04T07:02:49.776Z,32.50
2022-08-04T07:05:18.549Z,31.69
2022-08-04T07:07:57.214Z,31.53
2022-08-04T07:10:29.682Z,29.63
2022-08-04T07:12:58.111Z,30.58
2022-08-04T07:15:26.092Z,30.96
2022-08-04T07:17:54.711Z,30.01
2022-08-04T07:20:34.722Z,29.55
2022-08-04T07:23:05.732Z,29.36
2022-08-04T07:25:58.842Z,30.26
2022-08-04T07:28:24.477Z,29.83
2022-08-04T07:30:52.978Z,28.82
2022-08-04T07:33:20.848Z,29.58
2022-08-04T07:36:09.572Z,29.22
2022-08-04T07:38:51.035Z,28.39
2022-08-04T07:41:40.680Z,29.24
2022-08-04T07:44:09.835Z,29.34
2022-08-04T07:46:37.466Z,29.08
2022-08-04T07:49:05.863Z,29.39
2022-08-04T07:51:35.480Z,29.23
2022-08-04T07:54:06.209Z,29.44
2022-08-04T07:56:35.673Z,28.74
2022-08-04T07:59:03.127Z,29.69
2022-08-04T08:01:30.616Z,29.36
2022-08-04T08:03:59.132Z,29.88
2022-08-04T08:06:32.330Z,29.63
2022-08-04T08:09:02.277Z,29.01
2022-08-04T08:12:35.578Z,29.27
2022-08-04T08:14:30.901Z,29.57
2022-08-04T08:17:01.676Z,29.64
2022-08-04T08:19:30.235Z,29.65
2022-08-04T08:21:58.854Z,28.68
2022-08-04T08:24:31.653Z,28.90
2022-08-04T08:27:00.686Z,29.26
2022-08-04T08:29:29.713Z,28.86
2022-08-04T08:32:02.735Z,30.24
2022-08-04T08:34:34.490Z,30.86
2022-08-04T08:37:10.519Z,31.33
2022-08-04T08:39:52.851Z,29.80
2022-08-04T08:42:44.069Z,29.23
2022-08-04T08:45:19.993Z,28.95
2022-08-04T08:48:05.390Z,29.17
2022-08-04T08:51:11.631Z,29.18
2022-08-04T08:53:50.327Z,28.13
2022-08-04T08:56:50.709Z,27.55
2022-08-04T08:59:58.983Z,28.42
2022-08-04T09:02:46.755Z,28.98
2022-08-04T09:05:32.124Z,28.32
2022-08-04T09:08:13.784Z,28.24
2022-08-04T09:11:01.504Z,28.29
2022-08-04T09:13:37.295Z,27.81
2022-08-04T09:16:20.750Z,28.89
2022-08-04T09:19:00.976Z,27.46
2022-08-04T09:21:45.495Z,28.50
2022-08-04T09:24:35.594Z,29.00
2022-08-04T09:27:13.655Z,27.50
2022-08-04T09:29:48.796Z,27.25
2022-08-04T09:32:28.286Z,28.27
2022-08-04T09:35:15.800Z,27.55
2022-08-04T09:37:57.234Z,27.45
2022-08-04T09:40:52.553Z,26.84
2022-08-04T09:44:42.981Z,26.86
2022-08-04T09:46:40.734Z,27.15
2022-08-04T09:49:15.430Z,26.77
2022-08-04T09:51:57.278Z,25.66
2022-08-04T09:54:49.520Z,26.33
2022-08-04T09:57:42.367Z,26.09
2022-08-04T10:00:13.987Z,25.49
2022-08-04T10:02:45.147Z,25.00
2022-08-04T10:05:21.937Z,24.36
2022-08-04T10:08:16.703Z,24.53
2022-08-04T10:10:44.036Z,24.17
2022-08-04T10:13:31.961Z,23.09
2022-08-04T10:16:36.156Z,22.88
2022-08-04T10:19:29.065Z,22.89
2022-08-04T10:22:29.362Z,24.18
2022-08-04T10:25:37.515Z,24.70
2022-08-04T10:28:06.112Z,25.68
2022-08-04T10:30:39.541Z,25.77
2022-08-04T10:33:17.922Z,25.94
2022-08-04T10:35:50.881Z,25.45
2022-08-04T10:38:51.011Z,23.81
2022-08-04T10:41:23.800Z,23.98
2022-08-04T10:44:14.402Z,24.11
2022-08-04T10:46:53.591Z,24.54
2022-08-04T10:49:40.362Z,25.64
2022-08-04T10:52:48.372Z,26.02
2022-08-04T10:55:20.918Z,25.00
2022-08-04T10:57:52.702Z,24.72
2022-08-04T11:00:25.533Z,24.80
2022-08-04T11:03:05.977Z,25.25
2022-08-04T11:05:55.825Z,24.92
2022-08-04T11:08:29.736Z,25.49
2022-08-04T11:11:05.894Z,23.22
2022-08-04T11:13:47.094Z,23.18
2022-08-04T11:16:21.265Z,22.71
2022-08-04T11:19:44.680Z,21.88
2022-08-04T11:22:29.496Z,22.05
2022-08-04T11:25:17.610Z,22.68
2022-08-04T11:28:03.402Z,22.91
2022-08-04T11:38:21.013Z,24.43
2022-08-04T11:41:07.755Z,24.29
2022-08-04T11:44:03.314Z,24.75
2022-08-04T11:46:51.699Z,23.98
2022-08-04T11:49:56.519Z,22.85
2022-08-04T11:52:26.542Z,23.31
2022-08-04T11:54:55.131Z,23.11
2022-08-04T11:57:36.011Z,23.15
2022-08-04T12:00:10.865Z,22.98
2022-08-04T12:03:20.382Z,22.33
2022-08-04T12:06:14.023Z,22.46
2022-08-04T12:08:50.242Z,22.99
2022-08-04T12:11:38.413Z,23.21
2022-08-04T12:14:41.962Z,23.09
2022-08-04T12:17:11.737Z,22.82
2022-08-04T12:20:05.274Z,22.92
2022-08-04T12:22:45.997Z,22.36
2022-08-04T12:25:25.186Z,22.79
2022-08-04T12:28:12.876Z,22.63
2022-08-04T12:30:57.502Z,22.53
2022-08-04T12:34:03.353Z,22.09
2022-08-04T12:36:37.612Z,22.07
2022-08-04T12:39:20.417Z,22.88
2022-08-04T12:41:58.916Z,21.71
2022-08-04T12:44:37.284Z,22.25
2022-08-04T12:47:28.071Z,21.86
2022-08-04T12:50:06.094Z,21.76
2022-08-04T12:53:01.146Z,21.83
2022-08-04T12:55:32.138Z,21.79
2022-08-04T12:58:02.124Z,22.00
2022-08-04T13:00:42.154Z,21.29
2022-08-04T13:03:12.891Z,21.47
2022-08-04T13:05:42.350Z,21.56
2022-08-04T13:08:11.754Z,21.28
2022-08-04T13:10:42.733Z,21.63
2022-08-04T13:13:18.427Z,21.03
2022-08-04T13:15:58.622Z,21.93
2022-08-04T13:18:30.445Z,21.77
2022-08-04T13:21:50.551Z,22.60
2022-08-04T13:24:31.882Z,22.73
2022-08-04T13:27:16.134Z,22.45
2022-08-04T13:29:58.089Z,22.16
2022-08-04T13:32:29.041Z,22.46
2022-08-04T13:35:00.440Z,23.12
2022-08-04T13:37:35.327Z,22.62
2022-08-04T13:40:09.454Z,23.06
2022-08-04T13:42:38.853Z,23.26
2022-08-04T13:45:09.263Z,22.66
2022-08-04T13:47:39.521Z,22.89
2022-08-04T13:50:13.790Z,22.57
2022-08-04T13:52:42.956Z,23.11
2022-08-04T13:55:26.085Z,23.71
2022-08-04T13:58:04.555Z,22.71
2022-08-04T14:01:03.365Z,22.81
2022-08-04T14:03:53.888Z,22.74
2022-08-04T14:06:29.404Z,22.63
2022-08-04T14:09:10.362Z,22.89
2022-08-04T14:12:06.280Z,22.35
2022-08-04T14:14:34.134Z,22.06
2022-08-04T14:17:19.831Z,22.18
2022-08-04T14:19:50.366Z,22.50
2022-08-04T14:22:26.612Z,21.82
2022-08-04T14:25:16.148Z,22.54
2022-08-04T14:27:47.764Z,22.58
2022-08-04T14:30:31.711Z,22.24
2022-08-04T14:34:01.034Z,22.41
2022-08-04T14:36:03.786Z,22.73
2022-08-04T14:38:47.143Z,22.04
2022-08-04T14:41:16.124Z,22.25
2022-08-04T14:43:53.036Z,22.10
2022-08-04T14:46:20.995Z,22.82
2022-08-04T14:49:20.784Z,22.63
2022-08-04T14:51:57.474Z,21.98
2022-08-04T14:54:32.740Z,22.64
2022-08-04T14:57:04.831Z,22.02
2022-08-04T14:59:56.066Z,21.60
2022-08-04T15:02:29.768Z,22.25
2022-08-04T15:04:57.583Z,22.12
2022-08-04T15:07:25.018Z,22.39
2022-08-04T15:09:52.115Z,22.58
2022-08-04T15:12:19.206Z,22.84
2022-08-04T15:14:46.115Z,22.87
2022-08-04T15:17:29.237Z,23.16
2022-08-04T15:19:58.089Z,22.52
2022-08-04T15:22:25.345Z,22.41
2022-08-04T15:24:55.397Z,22.53
2022-08-04T15:27:29.076Z,22.84
2022-08-04T15:30:02.120Z,23.05
2022-08-04T15:32:37.480Z,23.18
2022-08-04T15:35:10.027Z,22.98
2022-08-04T15:37:49.923Z,23.49
2022-08-04T15:40:40.962Z,22.85
2022-08-04T15:43:20.312Z,22.49
2022-08-04T15:46:40.982Z,22.76
2022-08-04T15:48:34.801Z,24.14
2022-08-04T15:51:05.544Z,23.78
2022-08-04T15:54:02.965Z,23.76
2022-08-04T15:56:35.252Z,23.74
2022-08-04T15:59:02.444Z,23.99
2022-08-04T16:01:29.504Z,24.20
2022-08-04T16:04:00.334Z,23.31
2022-08-04T16:06:29.187Z,23.73
2022-08-04T16:09:02.440Z,23.95
2022-08-04T16:11:31.400Z,24.18
2022-08-04T16:13:59.096Z,24.28
2022-08-04T16:16:42.457Z,24.07
2022-08-04T16:19:13.895Z,24.33
2022-08-04T16:21:49.303Z,23.96
2022-08-04T16:24:20.242Z,24.55
2022-08-04T16:26:54.332Z,24.65
2022-08-04T16:29:27.085Z,25.08
2022-08-04T16:32:06.272Z,24.89
2022-08-04T16:34:49.761Z,24.85
2022-08-04T16:37:20.294Z,24.98
2022-08-04T16:39:49.924Z,24.79
2022-08-04T16:42:30.695Z,24.93
2022-08-04T16:45:07.232Z,25.29
2022-08-04T16:47:49.532Z,25.45
2022-08-04T16:50:25.428Z,25.49
2022-08-04T16:52:54.636Z,25.58
2022-08-04T16:55:24.704Z,25.67
2022-08-04T16:58:01.696Z,25.77
2022-08-04T17:00:34.428Z,26.21
2022-08-04T17:03:11.061Z,26.32
2022-08-04T17:05:40.409Z,26.53
2022-08-04T17:10:56.530Z,27.20
2022-08-04T17:14:03.974Z,27.15
2022-08-04T17:16:18.484Z,27.67
2022-08-04T17:18:48.264Z,27.73
2022-08-04T17:21:20.177Z,28.02
2022-08-04T17:24:15.027Z,28.14
2022-08-04T17:26:41.379Z,28.33
2022-08-04T17:29:09.401Z,28.59
2022-08-04T17:31:38.367Z,28.50
2022-08-04T17:34:19.258Z,29.56
2022-08-04T17:36:47.940Z,29.76
2022-08-04T17:39:19.789Z,30.51
2022-08-04T17:41:49.556Z,31.16
2022-08-04T17:44:17.692Z,31.74
2022-08-04T17:46:48.515Z,32.58
2022-08-04T17:49:18.677Z,33.90
2022-08-04T17:52:06.776Z,36.73
2022-08-04T17:54:40.769Z,35.95
2022-08-04T17:57:20.108Z,36.21
2022-08-04T17:59:58.055Z,35.48
2022-08-04T18:02:33.421Z,36.60
2022-08-04T18:05:06.105Z,37.08
2022-08-04T18:08:39.305Z,37.45
2022-08-04T18:10:51.996Z,38.65
2022-08-04T18:13:28.037Z,38.02
2022-08-04T18:16:08.051Z,36.46
2022-08-04T18:18:41.976Z,36.16
2022-08-04T18:21:16.485Z,36.80
2022-08-04T18:23:50.377Z,36.33
2022-08-04T18:26:18.283Z,37.40
2022-08-04T18:28:51.265Z,37.05
2022-08-04T18:31:18.403Z,37.41
2022-08-04T18:33:57.184Z,37.68
2022-08-04T18:36:36.544Z,37.57
2022-08-04T18:39:13.283Z,37.90
2022-08-04T18:42:02.311Z,38.09
2022-08-04T18:44:32.621Z,37.99
2022-08-04T18:47:23.161Z,38.19
2022-08-04T18:50:40.175Z,38.38
2022-08-04T18:52:45.115Z,38.18
2022-08-04T18:55:55.433Z,38.77
2022-08-04T18:58:07.339Z,38.76
2022-08-04T19:00:38.701Z,39.07
2022-08-04T19:03:13.324Z,39.47
2022-08-04T19:05:43.963Z,39.58
2022-08-04T19:08:34.493Z,39.76
2022-08-04T19:11:37.082Z,39.74
2022-08-04T19:13:54.672Z,40.44
2022-08-04T19:16:28.542Z,40.58
2022-08-04T19:18:56.878Z,40.76
2022-08-04T19:22:02.053Z,40.87
2022-08-04T19:24:32.917Z,40.70
2022-08-04T19:26:59.925Z,41.57
2022-08-04T19:29:37.942Z,41.41
2022-08-04T19:32:16.216Z,42.08
2022-08-04T19:34:47.551Z,42.60
2022-08-04T19:37:57.560Z,43.35
2022-08-04T19:40:09.526Z,43.31
2022-08-04T19:42:36.855Z,43.66
2022-08-04T19:45:04.864Z,43.91
2022-08-04T19:48:22.034Z,44.04
2022-08-04T19:50:19.990Z,44.50
2022-08-04T19:52:51.939Z,44.73
2022-08-04T19:55:37.217Z,45.17
2022-08-04T19:58:08.958Z,45.63
2022-08-04T20:00:37.749Z,45.39
2022-08-04T20:03:09.831Z,44.68
2022-08-04T20:05:54.561Z,45.78
2022-08-04T20:08:26.812Z,45.91
2022-08-04T20:10:55.119Z,45.53
2022-08-04T20:13:25.214Z,45.54
2022-08-04T20:15:59.422Z,45.36
2022-08-04T20:18:36.550Z,45.52
2022-08-04T20:21:19.846Z,45.24
2022-08-04T20:23:52.646Z,44.41
2022-08-04T20:26:20.135Z,44.73
2022-08-04T20:28:52.033Z,44.61
2022-08-04T20:31:21.525Z,45.09
2022-08-04T20:33:49.344Z,45.01
2022-08-04T20:36:21.214Z,44.76
2022-08-04T20:38:52.530Z,44.74
2022-08-04T20:41:20.132Z,45.47
2022-08-04T20:43:56.196Z,45.77
2022-08-04T20:46:29.379Z,46.34
2022-08-04T20:48:57.682Z,46.54
2022-08-04T20:51:31.862Z,45.88
2022-08-04T20:54:03.267Z,45.82
2022-08-04T20:56:50.738Z,45.84
2022-08-04T20:59:19.424Z,46.14
2022-08-04T21:01:49.485Z,46.25
2022-08-04T21:04:36.514Z,46.34
2022-08-04T21:07:10.267Z,46.33
2022-08-04T21:09:49.881Z,47.09
2022-08-04T21:12:27.502Z,47.39
2022-08-04T21:14:57.341Z,48.13
2022-08-04T21:17:56.777Z,48.06
2022-08-04T21:20:13.893Z,48.36
2022-08-04T21:22:41.194Z,48.39
2022-08-04T21:25:16.011Z,48.71
2022-08-04T21:27:43.893Z,48.55
2022-08-04T21:30:25.240Z,48.42
2022-08-04T21:32:55.345Z,48.85
2022-08-04T21:35:37.196Z,49.13
2022-08-04T21:38:17.629Z,48.62
2022-08-04T21:43:47.012Z,47.87
2022-08-04T21:46:15.235Z,48.19
2022-08-04T21:48:45.336Z,48.11
2022-08-04T21:51:57.025Z,48.03
2022-08-04T21:54:09.484Z,47.64
2022-08-04T21:56:37.906Z,47.21
2022-08-04T21:59:11.521Z,47.29
2022-08-04T22:04:29.480Z,46.87
2022-08-04T22:06:56.412Z,46.42
2022-08-04T22:09:23.366Z,46.80
2022-08-04T22:11:51.822Z,46.34
2022-08-04T22:14:28.973Z,46.26
2022-08-04T22:17:01.232Z,46.00
2022-08-04T22:19:50.134Z,46.85
2022-08-04T22:22:25.703Z,47.82
2022-08-04T22:24:58.534Z,47.14
2022-08-04T22:27:47.393Z,47.82
2022-08-04T22:30:17.165Z,48.29
2022-08-04T22:32:47.156Z,49.12
2022-08-04T22:35:36.442Z,49.04
2022-08-04T22:38:06.272Z,49.79
2022-08-04T22:40:50.042Z,50.54
2022-08-04T22:43:32.069Z,51.25
2022-08-04T22:46:05.283Z,51.18
2022-08-04T22:48:36.126Z,51.47
2022-08-04T22:51:05.655Z,50.72
2022-08-04T22:53:34.627Z,50.67
2022-08-04T22:56:10.291Z,50.89
2022-08-04T22:58:45.246Z,50.33
2022-08-04T23:01:17.327Z,50.27
2022-08-04T23:03:51.254Z,52.10
2022-08-04T23:06:28.317Z,52.72
2022-08-04T23:08:56.236Z,52.98
2022-08-04T23:11:24.129Z,52.42
2022-08-04T23:14:02.269Z,52.87
2022-08-04T23:16:29.529Z,52.45
2022-08-04T23:18:56.626Z,52.26
2022-08-04T23:21:24.276Z,52.45
2022-08-04T23:24:01.974Z,53.28
2022-08-04T23:26:30.175Z,52.21
2022-08-04T23:28:57.817Z,52.73
2022-08-04T23:31:38.911Z,52.10
2022-08-04T23:34:08.554Z,52.26
2022-08-04T23:36:35.667Z,52.92
2022-08-04T23:39:05.816Z,52.41
2022-08-04T23:41:53.865Z,53.12
2022-08-04T23:44:25.460Z,53.00
2022-08-04T23:47:03.356Z,52.70
2022-08-04T23:49:40.770Z,53.60
2022-08-04T23:52:23.124Z,53.57
2022-08-04T23:54:59.893Z,53.51
2022-08-04T23:57:31.065Z,53.40
